HCC weather

Columbia County Airport
Hudson, New York, United States

Public forecast

Using degrees Fahrenheit for public forecast. Weather courtesy of forecast.io.

METAR (pilot weather report)

Closest report is Pittsfield Municipal Airport, 20.2 nm (37.5 km) ENE. Retrieved 2019/04/21 21:03 UTC (40 minutes ago):

KPSF 212103Z AUTO 19007KT 10SM SCT026 BKN055 16/09 A3001 RMK AO2 T01610094

TAF (pilot weather forecast)

Closest forecast is Pittsfield Municipal Airport, 20.2 nm (37.5 km) ENE. Retrieved 2019/04/21 18:45 UTC (3 hours ago):

TAF KPSF 211743Z 2118/2218 15010G18KT P6SM VCSH OVC025 TEMPO 2118/2122 SCT025 OVC035 FM220000 VRB03KT P6SM BKN015 OVC025 FM220500 00000KT P6SM VCSH OVC015 FM221200 33004KT P6SM BKN012 OVC020 FM221600 35010G16KT P6SM VCSH BKN020 OVC035